CheckWX is a tool to help pilots better visualize weather data.  It is not intended as a substitute for an official pre-flight weather briefing.

07:54:12 UTC

KDCA TAF
Ronald Reagan Washington National Airport
Washington, Virginia, USA
KDCA 200543Z 2006/2112 VRB03KT P6SM SCT070 SCT120 FM201200 12006KT P6SM SCT060 FM201800 16007KT 6SM -SHRA VCTS BKN050CB FM210000 19005KT P6SM SCT070 BKN250 FM210600 VRB03KT P6SM SCT100 BKN250

Aug-20@
06:00 UTC

Aug-20 @ 06:00 UTC

Aug-20@
12:00 UTC

Aug-20 @ 12:00 UTC

KDCA 200543Z 2006/2112 VRB03KT P6SM SCT070 SCT120
Wind
  • Variable at 3 KTS
Cloud Levels
  • Scattered at 7,000' AGL
  • Scattered at 12,000' AGL

Aug-20@
12:00 UTC

Aug-20 @ 12:00 UTC

Aug-20@
18:00 UTC

Aug-20 @ 18:00 UTC

FM201200 12006KT P6SM SCT060

From

From Standard forecast or significant change

Wind
  • 120° at 6 KTS
Cloud Levels
  • Scattered at 6,000' AGL

Aug-20@
18:00 UTC

Aug-20 @ 18:00 UTC

Aug-21@
00:00 UTC

Aug-21 @ 00:00 UTC

FM201800 16007KT 6SM -SHRA VCTS BKN050CB

From

From Standard forecast or significant change

Wind
  • 160° at 7 KTS
Conditions
Light Rain, Area Thunderstorm
Cloud Levels
  • Broken at 5,000' AGL

Aug-21@
00:00 UTC

Aug-21 @ 00:00 UTC

Aug-21@
06:00 UTC

Aug-21 @ 06:00 UTC

FM210000 19005KT P6SM SCT070 BKN250

From

From Standard forecast or significant change

Wind
  • 190° at 5 KTS
Cloud Levels
  • Scattered at 7,000' AGL
  • Broken at 25,000' AGL

Aug-21@
06:00 UTC

Aug-21 @ 06:00 UTC

Aug-21@
12:00 UTC

Aug-21 @ 12:00 UTC

FM210600 VRB03KT P6SM SCT100 BKN250

From

From Standard forecast or significant change

Wind
  • Variable at 3 KTS
Cloud Levels
  • Scattered at 10,000' AGL
  • Broken at 25,000' AGL